sensor_id;sensor_type;location;lat;lon;timestamp;P1;durP1;ratioP1;P2;durP2;ratioP2
35558;SDS011;21661;50.794;-1.066;2022-07-10T00:00:27;13.77;;;7.85;;
35558;SDS011;21661;50.794;-1.066;2022-07-10T00:02:55;9.20;;;7.32;;
35558;SDS011;21661;50.794;-1.066;2022-07-10T00:05:21;9.25;;;7.25;;
35558;SDS011;21661;50.794;-1.066;2022-07-10T00:07:47;8.65;;;6.95;;
35558;SDS011;21661;50.794;-1.066;2022-07-10T00:10:14;8.45;;;6.78;;
35558;SDS011;21661;50.794;-1.066;2022-07-10T00:12:41;9.05;;;6.97;;
35558;SDS011;21661;50.794;-1.066;2022-07-10T00:15:06;11.43;;;7.30;;
35558;SDS011;21661;50.794;-1.066;2022-07-10T00:17:33;9.52;;;6.15;;
35558;SDS011;21661;50.794;-1.066;2022-07-10T00:19:59;11.35;;;7.10;;
35558;SDS011;21661;50.794;-1.066;2022-07-10T00:22:24;8.70;;;5.57;;
35558;SDS011;21661;50.794;-1.066;2022-07-10T00:24:50;9.85;;;7.07;;
35558;SDS011;21661;50.794;-1.066;2022-07-10T00:27:16;9.00;;;7.05;;
35558;SDS011;21661;50.794;-1.066;2022-07-10T00:29:43;10.43;;;6.95;;
35558;SDS011;21661;50.794;-1.066;2022-07-10T00:32:09;9.32;;;6.80;;
35558;SDS011;21661;50.794;-1.066;2022-07-10T00:34:36;10.32;;;7.72;;
35558;SDS011;21661;50.794;-1.066;2022-07-10T00:37:02;9.18;;;7.20;;
35558;SDS011;21661;50.794;-1.066;2022-07-10T00:39:28;12.02;;;7.55;;
35558;SDS011;21661;50.794;-1.066;2022-07-10T00:41:54;9.05;;;7.70;;
35558;SDS011;21661;50.794;-1.066;2022-07-10T00:44:20;10.15;;;7.30;;
35558;SDS011;21661;50.794;-1.066;2022-07-10T00:46:45;10.23;;;6.63;;
35558;SDS011;21661;50.794;-1.066;2022-07-10T00:49:11;9.65;;;7.10;;
35558;SDS011;21661;50.794;-1.066;2022-07-10T00:51:37;9.10;;;7.65;;
35558;SDS011;21661;50.794;-1.066;2022-07-10T00:54:04;9.45;;;7.75;;
35558;SDS011;21661;50.794;-1.066;2022-07-10T00:56:30;10.15;;;8.10;;
35558;SDS011;21661;50.794;-1.066;2022-07-10T00:58:56;12.63;;;10.60;;
35558;SDS011;21661;50.794;-1.066;2022-07-10T01:01:22;15.50;;;10.65;;
35558;SDS011;21661;50.794;-1.066;2022-07-10T01:03:48;17.13;;;12.77;;
35558;SDS011;21661;50.794;-1.066;2022-07-10T01:06:15;14.80;;;11.68;;
35558;SDS011;21661;50.794;-1.066;2022-07-10T01:08:41;16.35;;;11.55;;
35558;SDS011;21661;50.794;-1.066;2022-07-10T01:11:09;14.57;;;11.13;;
35558;SDS011;21661;50.794;-1.066;2022-07-10T01:13:35;16.02;;;12.30;;
35558;SDS011;21661;50.794;-1.066;2022-07-10T01:16:01;20.88;;;12.65;;
35558;SDS011;21661;50.794;-1.066;2022-07-10T01:18:27;14.43;;;12.43;;
35558;SDS011;21661;50.794;-1.066;2022-07-10T01:20:53;13.90;;;10.35;;
35558;SDS011;21661;50.794;-1.066;2022-07-10T01:23:20;12.98;;;9.98;;
35558;SDS011;21661;50.794;-1.066;2022-07-10T01:25:47;11.32;;;10.10;;
35558;SDS011;21661;50.794;-1.066;2022-07-10T01:28:13;10.13;;;8.95;;
35558;SDS011;21661;50.794;-1.066;2022-07-10T01:30:40;12.20;;;8.95;;
35558;SDS011;21661;50.794;-1.066;2022-07-10T01:33:06;10.63;;;8.55;;
35558;SDS011;21661;50.794;-1.066;2022-07-10T01:35:31;9.93;;;7.95;;
35558;SDS011;21661;50.794;-1.066;2022-07-10T01:37:57;9.82;;;7.95;;
35558;SDS011;21661;50.794;-1.066;2022-07-10T01:40:23;11.48;;;7.72;;
35558;SDS011;21661;50.794;-1.066;2022-07-10T01:42:48;14.18;;;9.45;;
35558;SDS011;21661;50.794;-1.066;2022-07-10T01:45:15;11.32;;;7.28;;
35558;SDS011;21661;50.794;-1.066;2022-07-10T01:47:42;11.60;;;6.47;;
35558;SDS011;21661;50.794;-1.066;2022-07-10T01:50:09;10.05;;;5.28;;
35558;SDS011;21661;50.794;-1.066;2022-07-10T01:52:35;8.23;;;4.18;;
35558;SDS011;21661;50.794;-1.066;2022-07-10T01:55:01;7.63;;;3.78;;
35558;SDS011;21661;50.794;-1.066;2022-07-10T01:57:27;7.15;;;3.63;;
35558;SDS011;21661;50.794;-1.066;2022-07-10T01:59:52;5.38;;;3.45;;
35558;SDS011;21661;50.794;-1.066;2022-07-10T02:02:18;6.35;;;3.35;;
35558;SDS011;21661;50.794;-1.066;2022-07-10T02:04:44;5.25;;;3.50;;
35558;SDS011;21661;50.794;-1.066;2022-07-10T02:07:11;6.63;;;3.83;;
35558;SDS011;21661;50.794;-1.066;2022-07-10T02:09:38;6.57;;;3.70;;
35558;SDS011;21661;50.794;-1.066;2022-07-10T02:12:04;7.18;;;4.05;;
35558;SDS011;21661;50.794;-1.066;2022-07-10T02:14:34;6.47;;;4.03;;
35558;SDS011;21661;50.794;-1.066;2022-07-10T02:17:00;8.02;;;4.70;;
35558;SDS011;21661;50.794;-1.066;2022-07-10T02:19:26;8.65;;;4.90;;
35558;SDS011;21661;50.794;-1.066;2022-07-10T02:21:52;8.90;;;4.80;;
35558;SDS011;21661;50.794;-1.066;2022-07-10T02:24:18;8.45;;;4.72;;
35558;SDS011;21661;50.794;-1.066;2022-07-10T02:26:44;6.47;;;4.50;;
35558;SDS011;21661;50.794;-1.066;2022-07-10T02:29:09;10.00;;;4.97;;
35558;SDS011;21661;50.794;-1.066;2022-07-10T02:31:35;11.75;;;5.40;;
35558;SDS011;21661;50.794;-1.066;2022-07-10T02:34:05;7.30;;;5.28;;
35558;SDS011;21661;50.794;-1.066;2022-07-10T02:36:34;8.43;;;5.85;;
35558;SDS011;21661;50.794;-1.066;2022-07-10T02:39:01;9.05;;;5.72;;
35558;SDS011;21661;50.794;-1.066;2022-07-10T02:41:27;10.32;;;6.03;;
35558;SDS011;21661;50.794;-1.066;2022-07-10T02:43:53;9.25;;;5.72;;
35558;SDS011;21661;50.794;-1.066;2022-07-10T02:46:19;8.98;;;6.15;;
35558;SDS011;21661;50.794;-1.066;2022-07-10T02:48:44;8.90;;;5.80;;
35558;SDS011;21661;50.794;-1.066;2022-07-10T02:51:10;8.32;;;5.13;;
35558;SDS011;21661;50.794;-1.066;2022-07-10T02:53:36;10.93;;;5.95;;
35558;SDS011;21661;50.794;-1.066;2022-07-10T02:56:01;8.63;;;6.03;;
35558;SDS011;21661;50.794;-1.066;2022-07-10T02:58:27;11.57;;;6.22;;
35558;SDS011;21661;50.794;-1.066;2022-07-10T03:00:53;9.52;;;6.15;;
35558;SDS011;21661;50.794;-1.066;2022-07-10T03:03:18;10.48;;;5.45;;
35558;SDS011;21661;50.794;-1.066;2022-07-10T03:05:44;7.43;;;4.88;;
35558;SDS011;21661;50.794;-1.066;2022-07-10T03:08:11;11.85;;;4.90;;
35558;SDS011;21661;50.794;-1.066;2022-07-10T03:10:37;9.43;;;4.88;;
35558;SDS011;21661;50.794;-1.066;2022-07-10T03:13:03;7.93;;;4.65;;
35558;SDS011;21661;50.794;-1.066;2022-07-10T03:15:28;6.20;;;3.80;;
35558;SDS011;21661;50.794;-1.066;2022-07-10T03:17:54;8.95;;;4.03;;
35558;SDS011;21661;50.794;-1.066;2022-07-10T03:20:20;7.60;;;4.30;;
35558;SDS011;21661;50.794;-1.066;2022-07-10T03:22:46;5.93;;;3.67;;
35558;SDS011;21661;50.794;-1.066;2022-07-10T03:25:11;8.52;;;3.90;;
35558;SDS011;21661;50.794;-1.066;2022-07-10T03:27:38;5.97;;;4.25;;
35558;SDS011;21661;50.794;-1.066;2022-07-10T03:30:04;8.50;;;3.85;;
35558;SDS011;21661;50.794;-1.066;2022-07-10T03:32:30;6.53;;;3.92;;
35558;SDS011;21661;50.794;-1.066;2022-07-10T03:34:56;7.68;;;3.47;;
35558;SDS011;21661;50.794;-1.066;2022-07-10T03:37:22;7.55;;;3.53;;
35558;SDS011;21661;50.794;-1.066;2022-07-10T03:39:48;5.80;;;3.08;;
35558;SDS011;21661;50.794;-1.066;2022-07-10T03:42:14;5.97;;;3.20;;
35558;SDS011;21661;50.794;-1.066;2022-07-10T03:44:39;5.55;;;3.00;;
35558;SDS011;21661;50.794;-1.066;2022-07-10T03:47:05;6.88;;;2.88;;
35558;SDS011;21661;50.794;-1.066;2022-07-10T03:49:31;6.32;;;3.25;;
35558;SDS011;21661;50.794;-1.066;2022-07-10T03:52:01;5.60;;;3.35;;
35558;SDS011;21661;50.794;-1.066;2022-07-10T03:54:28;8.43;;;3.60;;
35558;SDS011;21661;50.794;-1.066;2022-07-10T03:56:54;8.15;;;3.30;;
35558;SDS011;21661;50.794;-1.066;2022-07-10T03:59:42;5.82;;;3.25;;
35558;SDS011;21661;50.794;-1.066;2022-07-10T04:02:08;6.05;;;3.67;;
35558;SDS011;21661;50.794;-1.066;2022-07-10T04:04:33;7.40;;;3.80;;
35558;SDS011;21661;50.794;-1.066;2022-07-10T04:06:59;6.45;;;3.83;;
35558;SDS011;21661;50.794;-1.066;2022-07-10T04:09:25;7.53;;;3.92;;
35558;SDS011;21661;50.794;-1.066;2022-07-10T04:11:50;8.68;;;4.90;;
35558;SDS011;21661;50.794;-1.066;2022-07-10T04:14:16;5.55;;;4.40;;
35558;SDS011;21661;50.794;-1.066;2022-07-10T04:16:42;7.45;;;4.20;;
35558;SDS011;21661;50.794;-1.066;2022-07-10T04:19:07;8.65;;;4.18;;
35558;SDS011;21661;50.794;-1.066;2022-07-10T04:21:33;6.75;;;3.90;;
35558;SDS011;21661;50.794;-1.066;2022-07-10T04:23:59;7.97;;;3.72;;
35558;SDS011;21661;50.794;-1.066;2022-07-10T04:26:24;9.43;;;4.32;;
35558;SDS011;21661;50.794;-1.066;2022-07-10T04:28:50;7.93;;;4.05;;
35558;SDS011;21661;50.794;-1.066;2022-07-10T04:31:16;6.35;;;4.15;;
35558;SDS011;21661;50.794;-1.066;2022-07-10T04:33:41;10.43;;;4.45;;
35558;SDS011;21661;50.794;-1.066;2022-07-10T04:36:07;7.43;;;4.07;;
35558;SDS011;21661;50.794;-1.066;2022-07-10T04:38:33;6.22;;;4.35;;
35558;SDS011;21661;50.794;-1.066;2022-07-10T04:40:59;9.30;;;4.00;;
35558;SDS011;21661;50.794;-1.066;2022-07-10T04:43:25;6.47;;;3.85;;
35558;SDS011;21661;50.794;-1.066;2022-07-10T04:45:50;7.35;;;3.58;;
35558;SDS011;21661;50.794;-1.066;2022-07-10T04:48:16;8.02;;;3.47;;
35558;SDS011;21661;50.794;-1.066;2022-07-10T04:50:42;11.40;;;3.88;;
35558;SDS011;21661;50.794;-1.066;2022-07-10T04:53:07;8.43;;;3.67;;
35558;SDS011;21661;50.794;-1.066;2022-07-10T04:55:33;7.18;;;3.75;;
35558;SDS011;21661;50.794;-1.066;2022-07-10T04:57:59;6.90;;;3.63;;
35558;SDS011;21661;50.794;-1.066;2022-07-10T05:00:24;7.30;;;3.78;;
35558;SDS011;21661;50.794;-1.066;2022-07-10T05:02:50;9.93;;;3.63;;
35558;SDS011;21661;50.794;-1.066;2022-07-10T05:05:16;7.88;;;3.40;;
35558;SDS011;21661;50.794;-1.066;2022-07-10T05:07:42;5.30;;;3.22;;
35558;SDS011;21661;50.794;-1.066;2022-07-10T05:10:08;8.63;;;3.10;;
35558;SDS011;21661;50.794;-1.066;2022-07-10T05:12:34;6.43;;;2.95;;
35558;SDS011;21661;50.794;-1.066;2022-07-10T05:15:00;7.50;;;2.58;;
35558;SDS011;21661;50.794;-1.066;2022-07-10T05:17:26;7.30;;;2.83;;
35558;SDS011;21661;50.794;-1.066;2022-07-10T05:19:53;5.97;;;2.60;;
35558;SDS011;21661;50.794;-1.066;2022-07-10T05:22:21;4.53;;;2.78;;
35558;SDS011;21661;50.794;-1.066;2022-07-10T05:24:47;6.40;;;2.78;;
35558;SDS011;21661;50.794;-1.066;2022-07-10T05:27:13;6.82;;;2.90;;
35558;SDS011;21661;50.794;-1.066;2022-07-10T05:29:38;6.47;;;2.75;;
35558;SDS011;21661;50.794;-1.066;2022-07-10T05:32:04;5.28;;;2.80;;
35558;SDS011;21661;50.794;-1.066;2022-07-10T05:34:30;8.73;;;3.25;;
35558;SDS011;21661;50.794;-1.066;2022-07-10T05:36:56;5.55;;;2.60;;
35558;SDS011;21661;50.794;-1.066;2022-07-10T05:39:21;5.72;;;2.92;;
35558;SDS011;21661;50.794;-1.066;2022-07-10T05:41:51;8.02;;;3.15;;
35558;SDS011;21661;50.794;-1.066;2022-07-10T05:44:17;7.80;;;3.28;;
35558;SDS011;21661;50.794;-1.066;2022-07-10T05:46:44;7.45;;;2.65;;
35558;SDS011;21661;50.794;-1.066;2022-07-10T05:49:10;5.13;;;2.80;;
35558;SDS011;21661;50.794;-1.066;2022-07-10T05:51:36;6.45;;;2.95;;
35558;SDS011;21661;50.794;-1.066;2022-07-10T05:54:02;7.93;;;2.88;;
35558;SDS011;21661;50.794;-1.066;2022-07-10T05:56:28;6.40;;;2.58;;
35558;SDS011;21661;50.794;-1.066;2022-07-10T05:58:54;7.45;;;2.92;;
35558;SDS011;21661;50.794;-1.066;2022-07-10T06:01:22;6.18;;;2.67;;
35558;SDS011;21661;50.794;-1.066;2022-07-10T06:03:51;8.98;;;3.30;;
35558;SDS011;21661;50.794;-1.066;2022-07-10T06:06:17;7.07;;;2.92;;
35558;SDS011;21661;50.794;-1.066;2022-07-10T06:08:43;6.10;;;2.88;;
35558;SDS011;21661;50.794;-1.066;2022-07-10T06:11:10;6.90;;;3.05;;
35558;SDS011;21661;50.794;-1.066;2022-07-10T06:13:37;5.53;;;2.80;;
35558;SDS011;21661;50.794;-1.066;2022-07-10T06:16:03;6.82;;;2.63;;
35558;SDS011;21661;50.794;-1.066;2022-07-10T06:18:30;8.30;;;3.10;;
35558;SDS011;21661;50.794;-1.066;2022-07-10T06:20:58;6.38;;;2.80;;
35558;SDS011;21661;50.794;-1.066;2022-07-10T06:23:24;5.25;;;2.85;;
35558;SDS011;21661;50.794;-1.066;2022-07-10T06:25:50;5.25;;;2.78;;
35558;SDS011;21661;50.794;-1.066;2022-07-10T06:28:16;6.57;;;2.95;;
35558;SDS011;21661;50.794;-1.066;2022-07-10T06:30:42;7.40;;;3.10;;
35558;SDS011;21661;50.794;-1.066;2022-07-10T06:33:08;10.85;;;3.28;;
35558;SDS011;21661;50.794;-1.066;2022-07-10T06:35:33;6.85;;;3.20;;
35558;SDS011;21661;50.794;-1.066;2022-07-10T06:37:59;6.43;;;3.33;;
35558;SDS011;21661;50.794;-1.066;2022-07-10T06:40:25;6.25;;;3.03;;
35558;SDS011;21661;50.794;-1.066;2022-07-10T06:42:53;8.35;;;2.70;;
35558;SDS011;21661;50.794;-1.066;2022-07-10T06:45:19;6.75;;;2.80;;
35558;SDS011;21661;50.794;-1.066;2022-07-10T06:47:45;7.25;;;2.60;;
35558;SDS011;21661;50.794;-1.066;2022-07-10T06:50:24;5.63;;;2.83;;
35558;SDS011;21661;50.794;-1.066;2022-07-10T06:52:51;7.88;;;2.70;;
35558;SDS011;21661;50.794;-1.066;2022-07-10T06:55:20;8.38;;;2.53;;
35558;SDS011;21661;50.794;-1.066;2022-07-10T06:57:47;7.50;;;3.00;;
35558;SDS011;21661;50.794;-1.066;2022-07-10T07:00:12;6.75;;;2.60;;
35558;SDS011;21661;50.794;-1.066;2022-07-10T07:02:38;8.73;;;2.53;;
35558;SDS011;21661;50.794;-1.066;2022-07-10T07:05:05;5.90;;;2.47;;
35558;SDS011;21661;50.794;-1.066;2022-07-10T07:07:31;7.70;;;3.17;;
35558;SDS011;21661;50.794;-1.066;2022-07-10T07:09:57;12.13;;;3.92;;
35558;SDS011;21661;50.794;-1.066;2022-07-10T07:12:23;8.35;;;3.22;;
35558;SDS011;21661;50.794;-1.066;2022-07-10T07:14:48;7.07;;;2.85;;
35558;SDS011;21661;50.794;-1.066;2022-07-10T07:17:14;7.03;;;2.28;;
35558;SDS011;21661;50.794;-1.066;2022-07-10T07:19:46;7.82;;;2.80;;
35558;SDS011;21661;50.794;-1.066;2022-07-10T07:22:31;5.13;;;2.55;;
35558;SDS011;21661;50.794;-1.066;2022-07-10T07:25:15;11.32;;;2.58;;
35558;SDS011;21661;50.794;-1.066;2022-07-10T07:27:41;5.78;;;2.40;;
35558;SDS011;21661;50.794;-1.066;2022-07-10T07:30:07;10.10;;;3.78;;
35558;SDS011;21661;50.794;-1.066;2022-07-10T07:32:39;6.75;;;4.10;;
35558;SDS011;21661;50.794;-1.066;2022-07-10T07:35:06;5.55;;;2.55;;
35558;SDS011;21661;50.794;-1.066;2022-07-10T07:37:39;8.68;;;2.42;;
35558;SDS011;21661;50.794;-1.066;2022-07-10T07:40:19;7.00;;;2.75;;
35558;SDS011;21661;50.794;-1.066;2022-07-10T07:42:47;3.95;;;2.10;;
35558;SDS011;21661;50.794;-1.066;2022-07-10T07:45:14;7.45;;;2.20;;
35558;SDS011;21661;50.794;-1.066;2022-07-10T07:47:47;8.32;;;2.78;;
35558;SDS011;21661;50.794;-1.066;2022-07-10T07:50:16;6.90;;;2.50;;
35558;SDS011;21661;50.794;-1.066;2022-07-10T07:52:43;7.68;;;2.72;;
35558;SDS011;21661;50.794;-1.066;2022-07-10T07:55:10;4.55;;;2.42;;
35558;SDS011;21661;50.794;-1.066;2022-07-10T07:57:37;8.80;;;2.72;;
35558;SDS011;21661;50.794;-1.066;2022-07-10T08:00:06;6.20;;;2.10;;
35558;SDS011;21661;50.794;-1.066;2022-07-10T08:02:34;6.33;;;2.40;;
35558;SDS011;21661;50.794;-1.066;2022-07-10T08:05:00;7.15;;;2.53;;
35558;SDS011;21661;50.794;-1.066;2022-07-10T08:10:29;5.95;;;2.05;;
35558;SDS011;21661;50.794;-1.066;2022-07-10T08:12:55;5.38;;;2.40;;
35558;SDS011;21661;50.794;-1.066;2022-07-10T08:15:21;8.52;;;2.17;;
35558;SDS011;21661;50.794;-1.066;2022-07-10T08:17:54;5.72;;;2.38;;
35558;SDS011;21661;50.794;-1.066;2022-07-10T08:20:22;9.88;;;2.20;;
35558;SDS011;21661;50.794;-1.066;2022-07-10T08:22:49;7.82;;;2.63;;
35558;SDS011;21661;50.794;-1.066;2022-07-10T08:25:16;6.70;;;2.53;;
35558;SDS011;21661;50.794;-1.066;2022-07-10T08:27:42;5.43;;;2.28;;
35558;SDS011;21661;50.794;-1.066;2022-07-10T08:30:08;7.22;;;2.50;;
35558;SDS011;21661;50.794;-1.066;2022-07-10T08:32:35;7.32;;;2.30;;
35558;SDS011;21661;50.794;-1.066;2022-07-10T08:35:02;4.70;;;2.45;;
35558;SDS011;21661;50.794;-1.066;2022-07-10T08:37:28;9.40;;;2.63;;
35558;SDS011;21661;50.794;-1.066;2022-07-10T08:39:53;4.25;;;2.28;;
35558;SDS011;21661;50.794;-1.066;2022-07-10T08:42:19;5.63;;;2.70;;
35558;SDS011;21661;50.794;-1.066;2022-07-10T08:44:46;6.78;;;1.90;;
35558;SDS011;21661;50.794;-1.066;2022-07-10T08:47:11;3.75;;;1.90;;
35558;SDS011;21661;50.794;-1.066;2022-07-10T08:49:38;4.60;;;2.10;;
35558;SDS011;21661;50.794;-1.066;2022-07-10T08:55:03;4.82;;;2.55;;
35558;SDS011;21661;50.794;-1.066;2022-07-10T08:57:29;4.95;;;2.15;;
35558;SDS011;21661;50.794;-1.066;2022-07-10T08:59:56;4.82;;;2.03;;
35558;SDS011;21661;50.794;-1.066;2022-07-10T09:02:22;4.65;;;2.05;;
35558;SDS011;21661;50.794;-1.066;2022-07-10T09:04:48;4.97;;;2.30;;
35558;SDS011;21661;50.794;-1.066;2022-07-10T09:07:14;5.15;;;2.28;;
35558;SDS011;21661;50.794;-1.066;2022-07-10T09:09:56;7.18;;;2.58;;
35558;SDS011;21661;50.794;-1.066;2022-07-10T09:12:23;6.78;;;2.10;;
35558;SDS011;21661;50.794;-1.066;2022-07-10T09:14:50;4.38;;;1.73;;
35558;SDS011;21661;50.794;-1.066;2022-07-10T09:17:19;7.70;;;2.05;;
35558;SDS011;21661;50.794;-1.066;2022-07-10T09:19:45;5.90;;;2.00;;
35558;SDS011;21661;50.794;-1.066;2022-07-10T09:22:11;4.90;;;1.83;;
35558;SDS011;21661;50.794;-1.066;2022-07-10T09:24:38;6.07;;;1.50;;
35558;SDS011;21661;50.794;-1.066;2022-07-10T09:27:07;6.40;;;2.00;;
35558;SDS011;21661;50.794;-1.066;2022-07-10T09:29:44;4.28;;;1.80;;
35558;SDS011;21661;50.794;-1.066;2022-07-10T09:32:12;7.63;;;2.20;;
35558;SDS011;21661;50.794;-1.066;2022-07-10T09:34:38;4.80;;;2.00;;
35558;SDS011;21661;50.794;-1.066;2022-07-10T09:42:44;4.20;;;1.80;;
35558;SDS011;21661;50.794;-1.066;2022-07-10T09:45:38;3.20;;;1.70;;
35558;SDS011;21661;50.794;-1.066;2022-07-10T09:48:13;5.93;;;2.42;;
35558;SDS011;21661;50.794;-1.066;2022-07-10T09:54:22;3.70;;;1.65;;
35558;SDS011;21661;50.794;-1.066;2022-07-10T09:57:10;5.60;;;1.50;;
35558;SDS011;21661;50.794;-1.066;2022-07-10T09:59:49;4.38;;;1.60;;
35558;SDS011;21661;50.794;-1.066;2022-07-10T10:02:29;4.20;;;1.75;;
35558;SDS011;21661;50.794;-1.066;2022-07-10T10:05:12;4.15;;;1.90;;
35558;SDS011;21661;50.794;-1.066;2022-07-10T10:07:43;3.53;;;1.60;;
35558;SDS011;21661;50.794;-1.066;2022-07-10T10:10:13;3.63;;;1.73;;
35558;SDS011;21661;50.794;-1.066;2022-07-10T10:12:47;3.92;;;1.33;;
35558;SDS011;21661;50.794;-1.066;2022-07-10T10:15:17;3.65;;;1.00;;
35558;SDS011;21661;50.794;-1.066;2022-07-10T10:17:43;3.08;;;1.00;;
35558;SDS011;21661;50.794;-1.066;2022-07-10T10:20:12;2.97;;;1.40;;
35558;SDS011;21661;50.794;-1.066;2022-07-10T10:22:57;7.28;;;1.52;;
35558;SDS011;21661;50.794;-1.066;2022-07-10T10:25:25;4.82;;;1.60;;
35558;SDS011;21661;50.794;-1.066;2022-07-10T10:27:53;4.35;;;1.42;;
35558;SDS011;21661;50.794;-1.066;2022-07-10T10:30:20;5.63;;;1.33;;
35558;SDS011;21661;50.794;-1.066;2022-07-10T10:32:46;4.00;;;1.63;;
35558;SDS011;21661;50.794;-1.066;2022-07-10T10:35:20;8.57;;;1.67;;
35558;SDS011;21661;50.794;-1.066;2022-07-10T10:38:07;4.13;;;1.65;;
35558;SDS011;21661;50.794;-1.066;2022-07-10T10:40:33;3.30;;;1.73;;
35558;SDS011;21661;50.794;-1.066;2022-07-10T10:43:14;4.78;;;1.60;;
35558;SDS011;21661;50.794;-1.066;2022-07-10T10:45:52;3.15;;;1.58;;
35558;SDS011;21661;50.794;-1.066;2022-07-10T10:48:18;4.45;;;1.55;;
35558;SDS011;21661;50.794;-1.066;2022-07-10T10:50:51;2.70;;;1.27;;
35558;SDS011;21661;50.794;-1.066;2022-07-10T10:53:25;8.27;;;1.85;;
35558;SDS011;21661;50.794;-1.066;2022-07-10T10:58:36;4.30;;;1.40;;
35558;SDS011;21661;50.794;-1.066;2022-07-10T11:01:27;4.05;;;1.80;;
35558;SDS011;21661;50.794;-1.066;2022-07-10T11:09:32;4.30;;;1.50;;
35558;SDS011;21661;50.794;-1.066;2022-07-10T11:14:35;3.42;;;1.77;;
35558;SDS011;21661;50.794;-1.066;2022-07-10T11:17:03;4.20;;;1.38;;
35558;SDS011;21661;50.794;-1.066;2022-07-10T11:19:29;2.70;;;1.10;;
35558;SDS011;21661;50.794;-1.066;2022-07-10T11:24:51;2.65;;;1.10;;
35558;SDS011;21661;50.794;-1.066;2022-07-10T11:30:14;5.22;;;1.65;;
35558;SDS011;21661;50.794;-1.066;2022-07-10T11:32:39;4.75;;;1.30;;
35558;SDS011;21661;50.794;-1.066;2022-07-10T11:35:14;3.30;;;1.20;;
35558;SDS011;21661;50.794;-1.066;2022-07-10T11:37:50;4.97;;;1.33;;
35558;SDS011;21661;50.794;-1.066;2022-07-10T11:40:19;4.75;;;1.40;;
35558;SDS011;21661;50.794;-1.066;2022-07-10T11:42:53;5.05;;;1.67;;
35558;SDS011;21661;50.794;-1.066;2022-07-10T11:45:29;2.83;;;1.40;;
35558;SDS011;21661;50.794;-1.066;2022-07-10T11:47:58;2.38;;;1.00;;
35558;SDS011;21661;50.794;-1.066;2022-07-10T11:50:25;3.95;;;1.40;;
35558;SDS011;21661;50.794;-1.066;2022-07-10T11:52:51;1.77;;;1.10;;
35558;SDS011;21661;50.794;-1.066;2022-07-10T11:55:19;2.97;;;1.20;;
35558;SDS011;21661;50.794;-1.066;2022-07-10T11:57:48;4.00;;;1.15;;
35558;SDS011;21661;50.794;-1.066;2022-07-10T12:00:48;3.03;;;1.38;;
35558;SDS011;21661;50.794;-1.066;2022-07-10T12:03:16;4.28;;;1.27;;
35558;SDS011;21661;50.794;-1.066;2022-07-10T12:05:44;3.75;;;1.40;;
35558;SDS011;21661;50.794;-1.066;2022-07-10T12:08:10;2.58;;;1.10;;
35558;SDS011;21661;50.794;-1.066;2022-07-10T12:10:36;2.03;;;1.23;;
35558;SDS011;21661;50.794;-1.066;2022-07-10T12:13:02;4.03;;;1.10;;
35558;SDS011;21661;50.794;-1.066;2022-07-10T12:15:32;5.03;;;1.50;;
35558;SDS011;21661;50.794;-1.066;2022-07-10T12:18:03;3.20;;;1.00;;
35558;SDS011;21661;50.794;-1.066;2022-07-10T12:20:30;4.95;;;1.60;;
35558;SDS011;21661;50.794;-1.066;2022-07-10T12:22:57;2.80;;;1.15;;
35558;SDS011;21661;50.794;-1.066;2022-07-10T12:25:23;7.72;;;4.13;;
35558;SDS011;21661;50.794;-1.066;2022-07-10T12:27:54;4.75;;;1.45;;
35558;SDS011;21661;50.794;-1.066;2022-07-10T12:30:22;5.97;;;1.70;;
35558;SDS011;21661;50.794;-1.066;2022-07-10T12:32:48;3.42;;;1.73;;
35558;SDS011;21661;50.794;-1.066;2022-07-10T12:35:13;3.22;;;1.58;;
35558;SDS011;21661;50.794;-1.066;2022-07-10T12:37:48;9.55;;;4.75;;
35558;SDS011;21661;50.794;-1.066;2022-07-10T12:40:30;5.80;;;2.03;;
35558;SDS011;21661;50.794;-1.066;2022-07-10T12:43:04;3.40;;;1.27;;
35558;SDS011;21661;50.794;-1.066;2022-07-10T12:45:31;3.67;;;1.48;;
35558;SDS011;21661;50.794;-1.066;2022-07-10T12:47:57;5.18;;;1.80;;
35558;SDS011;21661;50.794;-1.066;2022-07-10T12:50:23;3.15;;;1.20;;
35558;SDS011;21661;50.794;-1.066;2022-07-10T12:52:50;3.00;;;1.30;;
35558;SDS011;21661;50.794;-1.066;2022-07-10T12:55:36;5.15;;;1.17;;
35558;SDS011;21661;50.794;-1.066;2022-07-10T12:58:12;5.70;;;1.52;;
35558;SDS011;21661;50.794;-1.066;2022-07-10T13:00:45;3.60;;;1.30;;
35558;SDS011;21661;50.794;-1.066;2022-07-10T13:03:18;4.60;;;1.60;;
35558;SDS011;21661;50.794;-1.066;2022-07-10T13:05:46;3.25;;;1.20;;
35558;SDS011;21661;50.794;-1.066;2022-07-10T13:10:44;8.82;;;1.60;;
35558;SDS011;21661;50.794;-1.066;2022-07-10T13:13:12;3.08;;;1.25;;
35558;SDS011;21661;50.794;-1.066;2022-07-10T13:15:38;2.90;;;1.48;;
35558;SDS011;21661;50.794;-1.066;2022-07-10T13:18:18;5.32;;;1.77;;
35558;SDS011;21661;50.794;-1.066;2022-07-10T13:20:49;2.97;;;1.50;;
35558;SDS011;21661;50.794;-1.066;2022-07-10T13:23:15;2.38;;;1.50;;
35558;SDS011;21661;50.794;-1.066;2022-07-10T13:25:43;4.43;;;1.40;;
35558;SDS011;21661;50.794;-1.066;2022-07-10T13:28:09;5.32;;;1.48;;
35558;SDS011;21661;50.794;-1.066;2022-07-10T13:30:36;3.67;;;1.50;;
35558;SDS011;21661;50.794;-1.066;2022-07-10T13:33:02;5.30;;;1.83;;
35558;SDS011;21661;50.794;-1.066;2022-07-10T13:35:28;4.57;;;2.05;;
35558;SDS011;21661;50.794;-1.066;2022-07-10T13:37:55;5.22;;;2.63;;
35558;SDS011;21661;50.794;-1.066;2022-07-10T13:40:24;6.90;;;2.40;;
35558;SDS011;21661;50.794;-1.066;2022-07-10T13:42:54;6.35;;;2.13;;
35558;SDS011;21661;50.794;-1.066;2022-07-10T13:45:21;6.20;;;1.83;;
35558;SDS011;21661;50.794;-1.066;2022-07-10T13:47:47;5.70;;;2.10;;
35558;SDS011;21661;50.794;-1.066;2022-07-10T13:50:13;6.22;;;2.30;;
35558;SDS011;21661;50.794;-1.066;2022-07-10T13:52:39;5.20;;;2.47;;
35558;SDS011;21661;50.794;-1.066;2022-07-10T13:55:05;4.95;;;1.65;;
35558;SDS011;21661;50.794;-1.066;2022-07-10T13:57:31;5.35;;;2.40;;
35558;SDS011;21661;50.794;-1.066;2022-07-10T13:59:58;4.78;;;2.42;;
35558;SDS011;21661;50.794;-1.066;2022-07-10T14:02:23;3.70;;;2.05;;
35558;SDS011;21661;50.794;-1.066;2022-07-10T14:04:49;7.03;;;2.40;;
35558;SDS011;21661;50.794;-1.066;2022-07-10T14:07:14;7.45;;;3.40;;
35558;SDS011;21661;50.794;-1.066;2022-07-10T14:09:40;5.95;;;1.65;;
35558;SDS011;21661;50.794;-1.066;2022-07-10T14:12:06;4.03;;;1.65;;
35558;SDS011;21661;50.794;-1.066;2022-07-10T14:14:32;4.55;;;2.40;;
35558;SDS011;21661;50.794;-1.066;2022-07-10T14:16:57;11.57;;;3.75;;
35558;SDS011;21661;50.794;-1.066;2022-07-10T14:19:23;4.05;;;1.45;;
35558;SDS011;21661;50.794;-1.066;2022-07-10T14:21:49;5.22;;;1.60;;
35558;SDS011;21661;50.794;-1.066;2022-07-10T14:24:14;4.95;;;1.80;;
35558;SDS011;21661;50.794;-1.066;2022-07-10T14:26:40;17.08;;;8.75;;
35558;SDS011;21661;50.794;-1.066;2022-07-10T14:29:06;6.95;;;3.35;;
35558;SDS011;21661;50.794;-1.066;2022-07-10T14:31:32;5.43;;;1.60;;
35558;SDS011;21661;50.794;-1.066;2022-07-10T14:33:58;4.00;;;1.50;;
35558;SDS011;21661;50.794;-1.066;2022-07-10T14:36:24;9.75;;;3.10;;
35558;SDS011;21661;50.794;-1.066;2022-07-10T14:38:53;6.20;;;2.00;;
35558;SDS011;21661;50.794;-1.066;2022-07-10T14:41:20;6.13;;;1.75;;
35558;SDS011;21661;50.794;-1.066;2022-07-10T14:43:46;4.32;;;1.58;;
35558;SDS011;21661;50.794;-1.066;2022-07-10T14:46:11;2.22;;;1.30;;
35558;SDS011;21661;50.794;-1.066;2022-07-10T14:48:37;4.45;;;1.35;;
35558;SDS011;21661;50.794;-1.066;2022-07-10T14:51:03;2.13;;;1.27;;
35558;SDS011;21661;50.794;-1.066;2022-07-10T14:53:29;5.13;;;1.33;;
35558;SDS011;21661;50.794;-1.066;2022-07-10T14:55:59;4.45;;;1.30;;
35558;SDS011;21661;50.794;-1.066;2022-07-10T14:58:25;5.47;;;1.80;;
35558;SDS011;21661;50.794;-1.066;2022-07-10T15:00:51;6.35;;;1.83;;
35558;SDS011;21661;50.794;-1.066;2022-07-10T15:03:17;6.60;;;4.03;;
35558;SDS011;21661;50.794;-1.066;2022-07-10T15:05:42;2.58;;;1.77;;
35558;SDS011;21661;50.794;-1.066;2022-07-10T15:08:08;4.30;;;1.55;;
35558;SDS011;21661;50.794;-1.066;2022-07-10T15:10:34;3.63;;;1.45;;